Time;durP1;ratioP1;P1;durP2;ratioP2;P2;SDS_P1;SDS_P2;PMS_P1;PMS_P2;Temp;Humidity;BMP_temperature;BMP_pressure;BME280_temperature;BME280_humidity;BME280_pressure;Samples;Min_cycle;Max_cycle;Signal;HPM_P1;HPM_P2
2022/03/21 00:01:07;;;;;;;8.32;5.15;;;;;;;1.55;100.00;96570.47;5035620;28;20102;-66
2022/03/21 00:03:32;;;;;;;9.00;5.30;;;;;;;1.47;100.00;96570.50;5052986;28;20606;-66
2022/03/21 00:05:59;;;;;;;11.60;5.07;;;;;;;1.46;100.00;96568.84;5052410;28;20028;-65
2022/03/21 00:08:25;;;;;;;10.85;5.22;;;;;;;1.47;100.00;96567.84;5040405;28;20071;-66
2022/03/21 00:10:52;;;;;;;12.25;5.57;;;;;;;1.43;100.00;96563.91;5052115;28;20092;-65
2022/03/21 00:13:18;;;;;;;13.55;5.78;;;;;;;1.40;100.00;96567.69;5051974;28;20083;-65
2022/03/21 00:15:48;;;;;;;9.60;5.82;;;;;;;1.33;100.00;96572.03;5055619;28;20079;-66
2022/03/21 00:18:14;;;;;;;8.57;5.18;;;;;;;1.23;100.00;96565.31;5056346;28;20040;-66
2022/03/21 00:20:47;;;;;;;11.60;5.93;;;;;;;1.09;100.00;96557.13;5055630;28;20029;-66
2022/03/21 00:23:13;;;;;;;9.77;5.35;;;;;;;0.99;100.00;96547.75;5057001;28;20025;-66
2022/03/21 00:25:39;;;;;;;9.48;5.57;;;;;;;0.91;100.00;96545.94;5057165;28;20083;-66
2022/03/21 00:28:06;;;;;;;10.02;5.50;;;;;;;0.82;100.00;96525.84;5056995;28;20025;-65
2022/03/21 00:30:32;;;;;;;10.23;5.43;;;;;;;0.74;100.00;96517.94;5056867;28;20055;-65
2022/03/21 00:33:11;;;;;;;13.00;6.60;;;;;;;0.68;100.00;96502.81;5056427;28;20025;-64
2022/03/21 00:35:37;;;;;;;10.65;6.35;;;;;;;0.62;100.00;96492.94;5055315;28;20025;-66
2022/03/21 00:38:03;;;;;;;12.27;6.13;;;;;;;0.62;100.00;96477.09;5038701;28;20475;-65
2022/03/21 00:40:44;;;;;;;14.65;6.90;;;;;;;0.60;100.00;96463.28;5020420;28;20049;-66
2022/03/21 00:43:10;;;;;;;11.90;6.47;;;;;;;0.61;100.00;96471.00;5036383;28;20495;-65
2022/03/21 00:45:35;;;;;;;11.48;6.57;;;;;;;0.64;100.00;96451.41;5036334;28;20048;-65
2022/03/21 00:48:01;;;;;;;18.20;8.05;;;;;;;0.68;100.00;96448.25;5035789;28;20021;-66
2022/03/21 00:50:29;;;;;;;15.30;7.43;;;;;;;0.72;100.00;96441.66;5018365;28;20060;-65
2022/03/21 00:52:57;;;;;;;13.32;8.18;;;;;;;0.72;100.00;96432.91;5035758;28;20032;-66
2022/03/21 00:55:28;;;;;;;16.05;8.98;;;;;;;0.71;100.00;96421.53;5035896;28;20040;-66
2022/03/21 00:57:55;;;;;;;17.13;8.85;;;;;;;0.71;100.00;96412.81;5035884;28;20025;-66
2022/03/21 01:00:24;;;;;;;20.42;9.55;;;;;;;0.70;100.00;96406.72;5035272;28;20108;-66
2022/03/21 01:02:49;;;;;;;14.63;8.18;;;;;;;0.64;100.00;96403.94;5018012;28;20112;-65
2022/03/21 01:05:15;;;;;;;15.88;8.30;;;;;;;0.56;100.00;96391.63;5035838;28;20045;-66
2022/03/21 01:07:41;;;;;;;15.13;8.40;;;;;;;0.50;100.00;96376.47;5029407;28;20076;-65
2022/03/21 01:10:14;;;;;;;16.52;9.20;;;;;;;0.49;100.00;96374.84;5016536;28;20029;-66
2022/03/21 01:12:47;;;;;;;21.13;10.20;;;;;;;0.48;100.00;96365.28;5035721;28;20021;-66
2022/03/21 01:15:17;;;;;;;17.52;9.73;;;;;;;0.57;100.00;96359.81;5035443;28;20059;-66
2022/03/21 01:17:44;;;;;;;19.92;9.23;;;;;;;0.60;100.00;96342.81;5018085;28;20033;-66
2022/03/21 01:20:10;;;;;;;19.50;9.68;;;;;;;0.68;100.00;96336.69;5017274;28;20558;-66
2022/03/21 01:22:36;;;;;;;17.63;9.85;;;;;;;0.72;100.00;96324.78;5035270;28;20436;-66
2022/03/21 01:25:02;;;;;;;21.02;10.15;;;;;;;0.67;100.00;96322.69;5034877;28;20112;-66
2022/03/21 01:27:29;;;;;;;19.80;10.30;;;;;;;0.62;100.00;96321.56;5034538;28;20030;-63
2022/03/21 01:29:55;;;;;;;22.83;11.07;;;;;;;0.58;100.00;96326.34;5017093;28;20040;-65
2022/03/21 01:32:27;;;;;;;21.45;11.60;;;;;;;0.59;100.00;96304.28;5017505;28;20553;-64
2022/03/21 01:34:55;;;;;;;21.98;11.32;;;;;;;0.55;100.00;96301.16;5017249;28;20036;-65
2022/03/21 01:37:21;;;;;;;20.45;11.15;;;;;;;0.49;100.00;96299.22;5017185;28;20025;-65
2022/03/21 01:39:49;;;;;;;23.20;12.20;;;;;;;0.46;100.00;96298.75;5028692;28;20075;-65
2022/03/21 01:42:14;;;;;;;23.45;11.45;;;;;;;0.40;100.00;96294.13;5036993;28;20048;-66
2022/03/21 01:44:41;;;;;;;23.30;11.65;;;;;;;0.38;100.00;96291.69;5054738;28;20021;-66
2022/03/21 01:47:09;;;;;;;23.98;11.90;;;;;;;0.34;100.00;96286.94;5036798;28;20025;-66
2022/03/21 01:49:35;;;;;;;24.67;11.73;;;;;;;0.30;100.00;96278.53;5054285;28;20079;-66
2022/03/21 01:52:04;;;;;;;19.48;10.95;;;;;;;0.27;100.00;96274.44;5037451;28;20475;-65
2022/03/21 01:57:17;;;;;;;19.80;11.68;;;;;;;0.20;100.00;96259.47;5054176;28;20059;-65
2022/03/21 01:59:51;;;;;;;21.77;11.15;;;;;;;0.17;100.00;96244.84;5036548;28;20021;-66
2022/03/21 02:02:17;;;;;;;23.27;11.68;;;;;;;0.18;100.00;96248.28;5054213;28;20100;-66
2022/03/21 02:04:46;;;;;;;18.75;10.45;;;;;;;0.16;100.00;96240.56;5037111;28;20049;-66
2022/03/21 02:07:12;;;;;;;20.90;11.43;;;;;;;0.12;100.00;96243.72;5051671;28;20105;-66
2022/03/21 02:09:38;;;;;;;22.27;11.05;;;;;;;0.05;100.00;96232.22;5045648;28;20107;-66
2022/03/21 02:12:04;;;;;;;20.42;11.50;;;;;;;-0.01;100.00;96224.00;5054118;28;20407;-66
2022/03/21 02:14:30;;;;;;;21.15;11.13;;;;;;;-0.01;100.00;96224.00;5036393;28;20028;-65
2022/03/21 02:16:55;;;;;;;21.30;11.18;;;;;;;0.01;100.00;96209.88;5054306;28;20028;-66
2022/03/21 02:19:30;;;;;;;20.85;10.88;;;;;;;-0.05;100.00;96206.09;5036085;28;20021;-66
2022/03/21 02:22:08;;;;;;;20.40;10.63;;;;;;;-0.06;100.00;96200.00;5054391;28;20099;-66
2022/03/21 02:24:53;;;;;;;23.42;11.90;;;;;;;-0.06;100.00;96213.16;5035873;28;20029;-66
2022/03/21 02:27:19;;;;;;;19.52;10.85;;;;;;;-0.04;100.00;96205.91;5054428;28;20032;-66
2022/03/21 02:29:48;;;;;;;18.73;10.68;;;;;;;0.04;100.00;96205.06;5054377;28;20032;-65
2022/03/21 02:32:14;;;;;;;17.65;10.20;;;;;;;0.05;100.00;96206.69;5053875;28;20024;-66
2022/03/21 02:34:40;;;;;;;18.38;9.30;;;;;;;0.06;100.00;96215.41;5036026;28;20021;-66
2022/03/21 02:37:14;;;;;;;18.50;9.18;;;;;;;0.05;100.00;96219.06;5053878;28;20017;-66
2022/03/21 02:39:40;;;;;;;17.10;9.40;;;;;;;0.06;100.00;96216.25;5054028;28;20064;-65
2022/03/21 02:42:06;;;;;;;17.80;9.38;;;;;;;0.06;100.00;96223.31;5054330;28;20028;-66
2022/03/21 02:44:36;;;;;;;15.68;9.30;;;;;;;0.05;100.00;96233.03;5054888;28;20387;-66
2022/03/21 02:47:03;;;;;;;17.52;9.20;;;;;;;-0.01;100.00;96236.34;5054324;28;20035;-65
2022/03/21 02:49:28;;;;;;;16.23;8.70;;;;;;;-0.07;100.00;96231.78;5054677;28;20021;-66
2022/03/21 02:51:55;;;;;;;15.27;8.35;;;;;;;-0.09;100.00;96241.66;5054315;28;20017;-65
2022/03/21 02:54:22;;;;;;;14.25;8.50;;;;;;;-0.04;100.00;96237.50;5053604;28;20024;-65
2022/03/21 02:56:48;;;;;;;15.88;8.65;;;;;;;0.02;100.00;96243.94;5053609;28;20078;-65
2022/03/21 02:59:17;;;;;;;14.13;8.13;;;;;;;0.07;100.00;96251.31;5052300;28;20021;-66
2022/03/21 03:01:43;;;;;;;15.00;7.68;;;;;;;0.10;100.00;96259.69;5041979;28;20099;-66
2022/03/21 03:04:11;;;;;;;15.05;8.30;;;;;;;0.12;100.00;96254.25;5034695;28;20032;-66
2022/03/21 03:06:40;;;;;;;15.32;7.10;;;;;;;0.12;100.00;96263.00;5035099;28;20036;-66
2022/03/21 03:09:08;;;;;;;11.10;6.28;;;;;;;0.12;100.00;96270.88;5032264;28;20021;-66
2022/03/21 03:11:38;;;;;;;14.82;7.25;;;;;;;0.15;100.00;96277.63;5054980;28;20021;-66
2022/03/21 03:14:04;;;;;;;13.65;7.63;;;;;;;0.09;100.00;96279.13;5037673;28;20055;-66
2022/03/21 03:16:30;;;;;;;11.60;6.32;;;;;;;0.04;100.00;96285.91;5053669;28;20108;-65
2022/03/21 03:18:55;;;;;;;12.93;7.40;;;;;;;0.01;100.00;96289.69;5055158;28;20108;-65
2022/03/21 03:21:24;;;;;;;10.48;6.18;;;;;;;-0.03;100.00;96280.47;5054821;28;20027;-65
2022/03/21 03:23:53;;;;;;;14.35;6.68;;;;;;;-0.04;100.00;96292.81;5037534;28;20025;-66
2022/03/21 03:26:19;;;;;;;14.70;7.43;;;;;;;-0.08;100.00;96291.53;5054657;28;20079;-65
2022/03/21 03:28:47;;;;;;;13.02;7.40;;;;;;;-0.14;100.00;96296.63;5055143;28;20013;-66
2022/03/21 03:31:28;;;;;;;12.02;6.72;;;;;;;-0.17;100.00;96302.25;5052818;28;20554;-66
2022/03/21 03:33:54;;;;;;;13.82;6.50;;;;;;;-0.22;100.00;96300.09;5054420;28;20032;-66
2022/03/21 03:36:20;;;;;;;10.98;6.88;;;;;;;-0.19;100.00;96304.22;5036656;28;20024;-66
2022/03/21 03:38:47;;;;;;;12.93;6.85;;;;;;;-0.12;100.00;96306.00;5053618;28;20048;-65
2022/03/21 03:41:19;;;;;;;10.90;6.20;;;;;;;-0.01;100.00;96312.72;5036502;28;20055;-66
2022/03/21 03:43:50;;;;;;;11.05;6.40;;;;;;;0.04;100.00;96315.69;5052672;28;20102;-66
2022/03/21 03:46:19;;;;;;;11.25;6.43;;;;;;;0.05;100.00;96324.41;5054485;28;20044;-65
2022/03/21 03:48:46;;;;;;;8.43;5.50;;;;;;;0.01;100.00;96328.38;5036905;28;20025;-64
2022/03/21 03:51:12;;;;;;;11.27;5.85;;;;;;;-0.02;100.00;96332.97;5057293;28;20021;-65
2022/03/21 03:53:38;;;;;;;13.55;7.15;;;;;;;0.06;100.00;96344.50;5040440;28;20025;-64
2022/03/21 03:56:04;;;;;;;12.32;6.60;;;;;;;0.14;100.00;96349.75;5058421;28;20081;-66
2022/03/21 03:58:33;;;;;;;10.88;6.22;;;;;;;0.09;100.00;96366.03;5057675;28;20482;-66
2022/03/21 04:00:59;;;;;;;13.95;5.63;;;;;;;0.02;100.00;96359.00;5051357;28;20025;-65
2022/03/21 04:03:45;;;;;;;10.70;6.30;;;;;;;-0.06;100.00;96359.84;5038201;28;20061;-66
2022/03/21 04:06:19;;;;;;;13.02;6.85;;;;;;;-0.11;100.00;96357.72;5037768;28;20052;-65
2022/03/21 04:08:46;;;;;;;12.13;6.60;;;;;;;-0.14;100.00;96355.38;5032052;28;20024;-66
2022/03/21 04:11:14;;;;;;;12.63;5.85;;;;;;;-0.19;100.00;96362.16;5058291;28;20029;-66
2022/03/21 04:13:40;;;;;;;14.35;6.47;;;;;;;-0.19;100.00;96362.97;5058222;28;20028;-66
2022/03/21 04:16:06;;;;;;;15.18;6.88;;;;;;;-0.14;100.00;96355.38;5057204;28;20379;-66
2022/03/21 04:18:36;;;;;;;13.40;7.22;;;;;;;-0.07;100.00;96340.56;5040306;28;20025;-66
2022/03/21 04:21:05;;;;;;;12.88;6.78;;;;;;;-0.03;100.00;96339.25;5058292;28;20031;-66
2022/03/21 04:23:30;;;;;;;12.15;7.07;;;;;;;-0.01;100.00;96341.69;5057818;28;20036;-65
2022/03/21 04:25:57;;;;;;;14.05;7.50;;;;;;;0.03;100.00;96336.94;5057959;28;20021;-66
2022/03/21 04:28:25;;;;;;;12.70;7.47;;;;;;;0.05;100.00;96327.03;5058154;28;20517;-66
2022/03/21 04:30:50;;;;;;;12.20;6.85;;;;;;;0.01;100.00;96336.28;5057081;28;20029;-64
2022/03/21 04:33:16;;;;;;;11.40;7.20;;;;;;;-0.04;100.00;96332.31;5058048;28;20179;-65
2022/03/21 04:35:43;;;;;;;15.60;8.23;;;;;;;-0.01;100.00;96334.63;5058255;28;20492;-66
2022/03/21 04:38:13;;;;;;;15.85;8.38;;;;;;;0.07;100.00;96335.59;5058096;28;20035;-65
2022/03/21 04:40:50;;;;;;;15.40;8.23;;;;;;;0.13;100.00;96334.94;5057823;28;20044;-66
2022/03/21 04:43:17;;;;;;;16.17;8.45;;;;;;;0.16;100.00;96338.03;5024092;28;20039;-64
2022/03/21 04:45:44;;;;;;;15.82;8.40;;;;;;;0.17;100.00;96339.69;5057700;28;20028;-65
2022/03/21 04:48:10;;;;;;;16.13;8.35;;;;;;;0.17;100.00;96341.50;5057546;28;20116;-66
2022/03/21 04:50:39;;;;;;;14.85;8.40;;;;;;;0.17;100.00;96344.94;5057355;28;20021;-65
2022/03/21 04:53:06;;;;;;;17.33;8.43;;;;;;;0.13;100.00;96340.22;5057823;28;20021;-65
2022/03/21 04:55:35;;;;;;;15.80;8.30;;;;;;;0.08;100.00;96342.50;5039248;28;20024;-64
2022/03/21 04:58:03;;;;;;;15.35;8.23;;;;;;;0.06;100.00;96336.59;5039608;28;20037;-65
2022/03/21 05:00:36;;;;;;;14.95;8.60;;;;;;;0.01;100.00;96342.38;5053267;28;20061;-64
2022/03/21 05:03:07;;;;;;;19.50;8.32;;;;;;;-0.05;100.00;96356.22;5036876;28;20017;-66
2022/03/21 05:05:38;;;;;;;15.27;8.30;;;;;;;-0.12;100.00;96355.22;5036039;28;20048;-66
2022/03/21 05:08:04;;;;;;;15.95;8.43;;;;;;;-0.22;100.00;96363.28;5027578;28;20081;-66
2022/03/21 05:10:31;;;;;;;15.32;8.35;;;;;;;-0.26;100.00;96362.00;5035020;28;20053;-65
2022/03/21 05:12:57;;;;;;;14.30;7.75;;;;;;;-0.29;100.00;96370.22;5019710;28;20028;-65
2022/03/21 05:15:24;;;;;;;15.38;8.05;;;;;;;-0.35;100.00;96366.44;5036308;28;20468;-66
2022/03/21 05:17:51;;;;;;;16.55;7.93;;;;;;;-0.45;100.00;96368.41;5035871;28;20056;-65
2022/03/21 05:20:20;;;;;;;14.15;8.60;;;;;;;-0.50;100.00;96362.00;5036552;28;20022;-65
2022/03/21 05:31:07;;;;;;;12.73;7.20;;;;;;;-0.53;100.00;96371.06;5036131;28;20419;-63
2022/03/21 05:36:25;;;;;;;10.90;6.70;;;;;;;-0.57;100.00;96376.81;5036040;28;20067;-65
2022/03/21 05:38:51;;;;;;;12.68;7.07;;;;;;;-0.56;100.00;96375.81;5035673;28;20540;-59
2022/03/21 05:41:20;;;;;;;14.15;6.85;;;;;;;-0.53;100.00;96383.41;5016172;28;20037;-58
2022/03/21 05:43:45;;;;;;;13.13;7.00;;;;;;;-0.50;100.00;96388.34;5033619;28;20025;-58
2022/03/21 05:46:10;;;;;;;12.95;6.82;;;;;;;-0.46;100.00;96398.34;5033889;28;20434;-60
2022/03/21 05:48:52;;;;;;;11.80;7.43;;;;;;;-0.46;100.00;96397.53;5033771;28;20413;-60
2022/03/21 05:51:28;;;;;;;12.48;7.50;;;;;;;-0.40;100.00;96404.78;5033789;28;20369;-60
2022/03/21 05:53:57;;;;;;;11.73;7.20;;;;;;;-0.40;100.00;96402.97;5033678;28;20055;-61
2022/03/21 05:56:25;;;;;;;13.52;7.95;;;;;;;-0.36;100.00;96406.09;5033303;28;20029;-61
2022/03/21 05:58:54;;;;;;;15.30;7.88;;;;;;;-0.32;100.00;96408.25;5033360;28;20083;-63
2022/03/21 06:01:23;;;;;;;13.07;7.55;;;;;;;-0.23;100.00;96408.22;5033504;28;20025;-60
2022/03/21 06:03:54;;;;;;;14.88;7.53;;;;;;;-0.15;100.00;96405.59;5033393;28;20392;-63
2022/03/21 06:06:21;;;;;;;14.55;8.23;;;;;;;-0.07;100.00;96402.97;5033379;28;20032;-62
2022/03/21 06:08:48;;;;;;;13.07;7.38;;;;;;;0.04;100.00;96404.44;5004011;28;20032;-60
2022/03/21 06:11:13;;;;;;;16.40;8.18;;;;;;;0.10;100.00;96406.38;5033209;28;20021;-60
2022/03/21 06:13:42;;;;;;;14.60;8.90;;;;;;;0.13;100.00;96403.44;5033078;28;20075;-60
2022/03/21 06:16:08;;;;;;;14.82;8.25;;;;;;;0.16;100.00;96403.09;5033480;28;20035;-62
2022/03/21 06:18:35;;;;;;;16.85;9.27;;;;;;;0.28;100.00;96393.84;5015362;28;20026;-62
2022/03/21 06:21:02;;;;;;;16.17;8.65;;;;;;;0.36;100.00;96400.91;5033074;28;20021;-61
2022/03/21 06:23:28;;;;;;;15.60;8.70;;;;;;;0.48;100.00;96402.19;5015067;28;20053;-62
2022/03/21 06:25:55;;;;;;;20.00;9.40;;;;;;;0.62;100.00;96398.00;5033115;28;20029;-55
2022/03/21 06:28:24;;;;;;;17.92;9.40;;;;;;;0.74;100.00;96400.09;5032907;28;20028;-57
2022/03/21 06:30:51;;;;;;;18.88;10.25;;;;;;;0.88;100.00;96393.31;4973061;28;20132;-59
2022/03/21 06:33:17;;;;;;;23.38;10.63;;;;;;;0.97;100.00;96388.78;5015085;28;20029;-56
2022/03/21 06:35:43;;;;;;;19.23;10.77;;;;;;;1.07;100.00;96384.94;5032740;28;20415;-62
2022/03/21 06:38:10;;;;;;;20.25;10.70;;;;;;;1.20;100.00;96383.56;5014936;28;20026;-62
2022/03/21 06:40:39;;;;;;;22.35;11.10;;;;;;;1.36;100.00;96381.63;5033293;28;20408;-63
2022/03/21 06:43:06;;;;;;;23.27;10.18;;;;;;;1.54;100.00;96385.81;5034722;28;20415;-62
2022/03/21 06:45:35;;;;;;;21.02;10.00;;;;;;;1.68;100.00;96398.22;5052607;28;20025;-60
2022/03/21 06:48:01;;;;;;;19.38;10.52;;;;;;;1.83;100.00;96395.63;5051649;28;20103;-62
2022/03/21 06:50:26;;;;;;;20.00;10.38;;;;;;;1.99;100.00;96393.66;5052168;28;20028;-61
2022/03/21 06:52:54;;;;;;;18.98;10.75;;;;;;;2.20;100.00;96400.91;5052764;28;20061;-62
2022/03/21 06:55:20;;;;;;;16.73;9.85;;;;;;;2.42;100.00;96387.81;5052405;28;20475;-60
2022/03/21 06:57:46;;;;;;;20.90;10.85;;;;;;;2.70;100.00;96394.06;5052466;28;20028;-61
2022/03/21 07:00:13;;;;;;;19.75;10.75;;;;;;;3.01;100.00;96401.78;5052222;28;20020;-61
2022/03/21 07:02:40;;;;;;;20.80;11.10;;;;;;;3.37;100.00;96399.19;5034548;28;20029;-61
2022/03/21 07:05:07;;;;;;;18.20;10.40;;;;;;;3.72;100.00;96399.31;5052032;28;20023;-58
2022/03/21 07:07:33;;;;;;;20.48;10.95;;;;;;;4.14;100.00;96405.59;5029320;28;20037;-57
2022/03/21 07:10:06;;;;;;;17.25;10.68;;;;;;;4.57;100.00;96412.44;5046326;28;20100;-58
2022/03/21 07:12:34;;;;;;;22.67;11.48;;;;;;;5.00;100.00;96427.38;5052270;28;20025;-57
2022/03/21 07:15:15;;;;;;;18.50;10.13;;;;;;;5.44;100.00;96469.44;5052173;28;20036;-55
2022/03/21 07:17:44;;;;;;;18.27;9.60;;;;;;;5.88;100.00;96521.34;5052046;28;20053;-60
2022/03/21 07:20:11;;;;;;;14.43;8.45;;;;;;;6.29;100.00;96590.41;5051902;28;20021;-60
2022/03/21 07:22:36;;;;;;;17.00;8.50;;;;;;;6.73;100.00;96645.81;5052188;28;20087;-59
2022/03/21 07:25:02;;;;;;;15.20;8.95;;;;;;;7.19;100.00;96685.81;5051432;28;20017;-58
2022/03/21 07:27:27;;;;;;;15.13;8.50;;;;;;;7.59;100.00;96733.78;5034572;28;20033;-55
2022/03/21 07:29:52;;;;;;;15.07;8.63;;;;;;;7.93;100.00;96758.63;5051820;28;20115;-65
2022/03/21 07:32:18;;;;;;;17.15;8.98;;;;;;;8.22;100.00;96758.16;5051917;28;20428;-61
2022/03/21 07:34:44;;;;;;;15.00;8.50;;;;;;;8.41;100.00;96776.00;5050715;28;20028;-60
2022/03/21 07:37:09;;;;;;;14.57;8.40;;;;;;;8.63;100.00;96826.50;5052056;28;20025;-62
2022/03/21 07:39:37;;;;;;;12.98;8.00;;;;;;;8.86;100.00;96850.88;5051511;28;20120;-62
2022/03/21 07:42:03;;;;;;;12.82;8.27;;;;;;;9.16;100.00;96871.75;5051944;28;20033;-62
2022/03/21 07:47:22;;;;;;;17.10;8.70;;;;;;;9.64;99.62;96895.38;5052371;28;20039;-62
2022/03/21 07:49:57;;;;;;;14.00;7.57;;;;;;;9.87;92.15;96915.19;4966731;28;20116;-64
2022/03/21 07:52:23;;;;;;;12.02;7.65;;;;;;;10.08;90.32;96914.03;5051690;28;20029;-59
2022/03/21 07:54:55;;;;;;;13.90;7.93;;;;;;;10.23;87.74;96932.50;5051796;28;20365;-58
2022/03/21 07:57:26;;;;;;;11.02;6.65;;;;;;;10.34;84.04;96939.84;5051804;28;20029;-60
2022/03/21 07:59:52;;;;;;;11.75;6.97;;;;;;;10.33;78.63;96954.28;5051645;28;20123;-60
2022/03/21 08:02:29;;;;;;;12.45;7.13;;;;;;;10.44;76.77;96961.59;5034138;28;20128;-58
2022/03/21 08:04:55;;;;;;;11.23;7.32;;;;;;;10.39;75.92;96964.09;5031826;28;20104;-59
2022/03/21 08:07:20;;;;;;;12.27;8.10;;;;;;;10.48;74.79;96964.66;5010267;28;20109;-60
2022/03/21 08:09:48;;;;;;;14.68;7.63;;;;;;;10.63;74.99;96969.69;5036401;28;20544;-58
2022/03/21 08:12:13;;;;;;;12.15;7.30;;;;;;;10.88;74.28;96983.09;5049315;28;20021;-62
2022/03/21 08:14:39;;;;;;;15.30;7.97;;;;;;;11.11;71.61;96979.78;5051078;28;20024;-60
2022/03/21 08:17:05;;;;;;;13.60;7.57;;;;;;;11.28;70.61;96978.13;5050150;28;20029;-60
2022/03/21 08:19:30;;;;;;;11.18;7.85;;;;;;;11.40;70.79;96983.63;5051507;28;20055;-62
2022/03/21 08:21:59;;;;;;;14.80;7.95;;;;;;;11.48;70.86;96986.78;5033859;28;20024;-56
2022/03/21 08:24:24;;;;;;;15.23;8.55;;;;;;;11.70;73.09;96984.47;5029843;28;20033;-56
2022/03/21 08:26:50;;;;;;;15.55;8.20;;;;;;;11.91;73.60;96983.22;5013995;28;20029;-59
2022/03/21 08:29:18;;;;;;;13.73;8.35;;;;;;;12.10;70.95;96986.69;5024664;28;20044;-54
2022/03/21 08:31:47;;;;;;;13.80;7.85;;;;;;;12.29;67.75;96992.84;5013632;28;20100;-58
2022/03/21 08:34:22;;;;;;;12.02;7.85;;;;;;;12.30;65.31;96997.16;5031226;28;20068;-57
2022/03/21 08:36:48;;;;;;;12.02;7.88;;;;;;;12.39;65.21;96993.91;5034783;28;20025;-63
2022/03/21 08:39:23;;;;;;;12.68;7.28;;;;;;;12.51;63.45;96995.81;5023702;28;20041;-57
2022/03/21 08:41:48;;;;;;;10.50;7.88;;;;;;;12.67;65.24;96987.06;5057462;28;20091;-62
2022/03/21 08:44:23;;;;;;;11.05;7.90;;;;;;;12.89;63.57;96987.34;5054570;28;20033;-60
2022/03/21 08:46:54;;;;;;;12.30;7.70;;;;;;;12.99;64.76;96980.31;5054992;28;20365;-61
2022/03/21 08:49:26;;;;;;;12.43;8.45;;;;;;;13.09;65.41;96977.06;5054544;28;20063;-60
2022/03/21 08:51:52;;;;;;;14.15;8.55;;;;;;;13.14;65.57;96979.06;5036879;28;20029;-60
2022/03/21 08:54:18;;;;;;;12.98;8.48;;;;;;;13.33;64.51;96984.09;5037202;28;20071;-62
2022/03/21 08:56:47;;;;;;;15.13;8.90;;;;;;;13.53;65.14;96978.31;5054737;28;20025;-62
2022/03/21 08:59:22;;;;;;;12.35;8.65;;;;;;;13.68;64.14;96977.84;5054501;28;20471;-60
2022/03/21 09:01:48;;;;;;;14.75;9.20;;;;;;;13.87;60.93;96976.59;5067048;28;20020;-63
2022/03/21 09:04:13;;;;;;;14.15;9.40;;;;;;;13.67;61.24;96973.50;5053415;28;20430;-62
2022/03/21 09:06:38;;;;;;;12.60;7.97;;;;;;;13.51;61.41;96977.75;5036116;28;20049;-62
2022/03/21 09:09:07;;;;;;;15.27;9.25;;;;;;;13.66;62.14;96969.16;5054234;28;20028;-63
2022/03/21 09:11:33;;;;;;;19.33;11.23;;;;;;;13.90;65.14;96965.38;5064166;28;20028;-60
2022/03/21 09:13:58;;;;;;;15.57;10.43;;;;;;;14.01;66.41;96969.06;5036543;28;20033;-62
2022/03/21 09:16:24;;;;;;;17.13;10.65;;;;;;;14.06;66.36;96958.38;5054199;28;20033;-60
2022/03/21 09:18:58;;;;;;;20.38;11.77;;;;;;;14.36;68.10;96950.03;5054199;28;20085;-60
2022/03/21 09:21:24;;;;;;;17.48;10.93;;;;;;;14.55;63.74;96947.97;5059902;28;20437;-57
2022/03/21 09:23:53;;;;;;;16.08;11.05;;;;;;;14.75;64.61;96948.28;5054078;28;20021;-60
2022/03/21 09:26:21;;;;;;;16.42;11.27;;;;;;;14.47;62.09;96943.78;5052058;28;20024;-62
2022/03/21 09:29:05;;;;;;;18.52;11.20;;;;;;;14.54;61.06;96943.59;5053930;28;20442;-62
2022/03/21 09:31:36;;;;;;;18.42;11.90;;;;;;;14.45;62.25;96945.91;5057366;28;20451;-63
2022/03/21 09:34:03;;;;;;;18.08;11.95;;;;;;;14.05;63.46;96931.69;5035485;28;20063;-63
2022/03/21 09:36:28;;;;;;;20.35;11.90;;;;;;;14.15;63.94;96940.75;5036033;28;20083;-63
2022/03/21 09:38:57;;;;;;;19.17;12.65;;;;;;;13.99;63.39;96938.84;5049394;28;20069;-63
2022/03/21 09:41:26;;;;;;;17.77;12.50;;;;;;;14.14;66.23;96932.94;5016053;28;20018;-54
2022/03/21 09:44:09;;;;;;;18.40;12.18;;;;;;;14.34;63.91;96930.59;5016188;28;20556;-57
2022/03/21 09:46:43;;;;;;;19.03;13.10;;;;;;;14.55;63.53;96922.88;5033201;28;20080;-55
2022/03/21 09:49:10;;;;;;;19.60;12.35;;;;;;;14.62;62.88;96928.91;5016012;28;20467;-55
2022/03/21 09:51:37;;;;;;;20.05;12.60;;;;;;;14.73;63.51;96923.44;5015826;28;20021;-57
2022/03/21 09:54:03;;;;;;;21.90;13.45;;;;;;;14.82;64.14;96921.16;5033755;28;20033;-59
2022/03/21 09:56:40;;;;;;;18.55;12.55;;;;;;;14.92;62.94;96912.38;5033586;28;20055;-61
2022/03/21 09:59:09;;;;;;;21.17;12.88;;;;;;;14.97;64.27;96904.34;5015588;28;20022;-60
2022/03/21 10:01:42;;;;;;;17.98;12.50;;;;;;;14.88;64.56;96911.25;5033517;28;20075;-61
2022/03/21 10:04:08;;;;;;;18.70;11.57;;;;;;;14.96;60.54;96908.13;5015612;28;20500;-61
2022/03/21 10:06:40;;;;;;;17.85;12.13;;;;;;;15.31;62.73;96910.53;5033482;28;20029;-61
2022/03/21 10:09:19;;;;;;;19.23;12.57;;;;;;;15.73;63.28;96897.25;5022431;28;20384;-61
2022/03/21 10:12:00;;;;;;;20.88;12.20;;;;;;;15.86;60.87;96906.88;5033300;28;20021;-61
2022/03/21 10:14:34;;;;;;;17.40;11.40;;;;;;;15.92;61.50;96900.44;5033479;28;20108;-60
2022/03/21 10:17:01;;;;;;;18.08;11.05;;;;;;;15.88;59.40;96893.94;5033320;28;20060;-60
2022/03/21 10:19:27;;;;;;;17.80;11.70;;;;;;;15.78;60.19;96894.63;5033134;28;20498;-57
2022/03/21 10:22:00;;;;;;;16.55;11.38;;;;;;;15.75;59.02;96900.56;5033169;28;20053;-57
2022/03/21 10:24:26;;;;;;;17.08;11.52;;;;;;;15.89;57.82;96890.97;5033137;28;20021;-56
2022/03/21 10:26:51;;;;;;;20.20;12.85;;;;;;;15.97;60.07;96897.00;5033010;28;20112;-57
2022/03/21 10:29:17;;;;;;;19.50;12.35;;;;;;;16.18;59.90;96893.44;5015050;28;20550;-59
2022/03/21 10:31:48;;;;;;;19.75;12.75;;;;;;;16.12;61.70;96889.84;5032998;28;20123;-55
2022/03/21 10:34:30;;;;;;;17.83;12.77;;;;;;;16.06;60.50;96896.25;5015338;28;20056;-58
2022/03/21 10:37:09;;;;;;;18.07;12.17;;;;;;;16.27;60.90;96882.94;5033016;28;20056;-58
2022/03/21 10:39:38;;;;;;;17.10;11.50;;;;;;;16.27;59.19;96886.47;5042249;28;20295;-59
2022/03/21 10:42:06;;;;;;;20.13;13.15;;;;;;;16.49;59.93;96881.78;5034953;28;20025;-60
2022/03/21 10:44:36;;;;;;;18.77;11.60;;;;;;;16.46;59.63;96876.91;5052672;28;20029;-59
2022/03/21 10:47:05;;;;;;;17.88;12.35;;;;;;;16.37;58.79;96875.72;5052582;28;20078;-60
2022/03/21 10:49:40;;;;;;;20.38;12.50;;;;;;;16.17;57.58;96873.69;5034618;28;20025;-58
2022/03/21 10:52:17;;;;;;;15.90;10.93;;;;;;;16.00;56.16;96866.75;5052512;28;20032;-58
2022/03/21 10:54:54;;;;;;;19.65;11.68;;;;;;;15.74;59.66;96866.50;5034718;28;20021;-58
2022/03/21 10:57:37;;;;;;;17.30;12.05;;;;;;;15.37;60.32;96859.00;5052368;28;20541;-61
2022/03/21 11:00:20;;;;;;;17.65;12.00;;;;;;;15.39;61.88;96856.06;5052441;28;20418;-60
2022/03/21 11:03:03;;;;;;;16.60;11.30;;;;;;;15.29;59.88;96858.63;5002916;28;20396;-60
2022/03/21 11:05:32;;;;;;;15.75;10.70;;;;;;;15.41;59.69;96856.63;5032513;28;20021;-59
2022/03/21 11:07:57;;;;;;;18.77;11.95;;;;;;;15.26;63.77;96856.44;5021978;28;20527;-61
2022/03/21 11:10:25;;;;;;;17.40;11.45;;;;;;;15.50;62.59;96841.59;5027821;28;20053;-58
2022/03/21 11:12:50;;;;;;;18.02;11.38;;;;;;;16.01;62.68;96852.97;5029867;28;20116;-59
2022/03/21 11:15:16;;;;;;;16.05;10.02;;;;;;;15.93;53.92;96850.72;5031945;28;20101;-59
2022/03/21 11:17:43;;;;;;;18.27;11.57;;;;;;;16.16;58.25;96846.88;5032288;28;20435;-59
2022/03/21 11:20:14;;;;;;;15.32;11.48;;;;;;;16.34;59.63;96849.22;5014393;28;20079;-60
2022/03/21 11:22:48;;;;;;;15.52;10.50;;;;;;;16.53;59.74;96841.53;5032183;28;20065;-61
2022/03/21 11:25:16;;;;;;;15.60;10.95;;;;;;;16.42;58.14;96846.03;5032162;28;20100;-58
2022/03/21 11:27:58;;;;;;;17.17;11.15;;;;;;;16.51;58.62;96836.38;5014386;28;20026;-60
2022/03/21 11:31:01;;;;;;;16.85;10.93;;;;;;;16.34;58.35;96835.69;5032168;28;20025;-56
2022/03/21 11:33:41;;;;;;;17.85;10.75;;;;;;;16.30;58.40;96834.59;5014469;28;20095;-61
2022/03/21 11:36:12;;;;;;;16.52;11.55;;;;;;;16.38;59.47;96827.88;5032307;28;20061;-62
2022/03/21 11:38:46;;;;;;;18.25;11.52;;;;;;;16.28;61.62;96825.09;5031715;28;20083;-60
2022/03/21 11:41:23;;;;;;;19.23;12.85;;;;;;;16.12;59.79;96824.16;5059035;23;20526;-65
2022/03/21 11:44:03;;;;;;;19.02;11.65;;;;;;;16.15;62.72;96819.03;5033135;28;20059;-65
2022/03/21 11:46:31;;;;;;;20.50;11.52;;;;;;;16.27;59.25;96816.16;5030798;28;20497;-65